sensor_id;sensor_type;location;lat;lon;timestamp;pressure;altitude;pressure_sealevel;temperature;humidity
36514;BME280;74739;46.796;9.824;2024-03-25T00:00:17;83714.48;;;-8.95;68.60
36514;BME280;74739;46.796;9.824;2024-03-25T00:02:44;83716.20;;;-9.88;68.68
36514;BME280;74739;46.796;9.824;2024-03-25T00:05:11;83713.31;;;-10.04;69.80
36514;BME280;74739;46.796;9.824;2024-03-25T00:07:38;83712.23;;;-9.50;71.00
36514;BME280;74739;46.796;9.824;2024-03-25T00:10:06;83709.90;;;-7.76;64.45
36514;BME280;74739;46.796;9.824;2024-03-25T00:12:33;83704.54;;;-6.84;59.76
36514;BME280;74739;46.796;9.824;2024-03-25T00:15:00;83701.63;;;-5.90;57.71
36514;BME280;74739;46.796;9.824;2024-03-25T00:17:27;83700.86;;;-6.12;57.90
36514;BME280;74739;46.796;9.824;2024-03-25T00:19:54;83701.38;;;-7.63;60.03
36514;BME280;74739;46.796;9.824;2024-03-25T00:22:22;83708.71;;;-9.56;67.35
36514;BME280;74739;46.796;9.824;2024-03-25T00:24:49;83702.51;;;-7.55;62.66
36514;BME280;74739;46.796;9.824;2024-03-25T00:27:17;83699.02;;;-6.35;57.72
36514;BME280;74739;46.796;9.824;2024-03-25T00:29:45;83701.32;;;-6.09;55.39
36514;BME280;74739;46.796;9.824;2024-03-25T00:32:11;83700.89;;;-6.75;58.27
36514;BME280;74739;46.796;9.824;2024-03-25T00:34:38;83708.04;;;-8.83;65.09
36514;BME280;74739;46.796;9.824;2024-03-25T00:37:06;83711.67;;;-9.34;67.12
36514;BME280;74739;46.796;9.824;2024-03-25T00:39:33;83706.00;;;-9.30;67.36
36514;BME280;74739;46.796;9.824;2024-03-25T00:42:00;83704.35;;;-9.20;67.40
36514;BME280;74739;46.796;9.824;2024-03-25T00:44:27;83699.67;;;-6.90;60.88
36514;BME280;74739;46.796;9.824;2024-03-25T00:46:54;83691.20;;;-5.98;57.85
36514;BME280;74739;46.796;9.824;2024-03-25T00:49:21;83696.84;;;-5.94;57.42
36514;BME280;74739;46.796;9.824;2024-03-25T00:51:48;83694.70;;;-6.15;56.17
36514;BME280;74739;46.796;9.824;2024-03-25T00:54:15;83689.49;;;-5.50;55.34
36514;BME280;74739;46.796;9.824;2024-03-25T00:56:43;83701.45;;;-8.26;63.12
36514;BME280;74739;46.796;9.824;2024-03-25T00:59:11;83707.58;;;-8.55;65.84
36514;BME280;74739;46.796;9.824;2024-03-25T01:01:39;83706.42;;;-7.66;61.80
36514;BME280;74739;46.796;9.824;2024-03-25T01:04:06;83702.51;;;-6.90;59.38
36514;BME280;74739;46.796;9.824;2024-03-25T01:06:34;83698.52;;;-8.10;62.99
36514;BME280;74739;46.796;9.824;2024-03-25T01:09:02;83705.42;;;-6.73;58.85
36514;BME280;74739;46.796;9.824;2024-03-25T01:11:30;83705.01;;;-5.72;56.91
36514;BME280;74739;46.796;9.824;2024-03-25T01:13:58;83707.30;;;-7.35;59.48
36514;BME280;74739;46.796;9.824;2024-03-25T01:16:26;83707.69;;;-5.90;56.29
36514;BME280;74739;46.796;9.824;2024-03-25T01:18:54;83708.69;;;-7.62;60.11
36514;BME280;74739;46.796;9.824;2024-03-25T01:21:22;83706.97;;;-6.87;59.73
36514;BME280;74739;46.796;9.824;2024-03-25T01:23:50;83698.72;;;-6.38;57.44
36514;BME280;74739;46.796;9.824;2024-03-25T01:26:18;83685.18;;;-5.16;54.38
36514;BME280;74739;46.796;9.824;2024-03-25T01:28:46;83686.25;;;-6.20;54.97
36514;BME280;74739;46.796;9.824;2024-03-25T01:31:14;83698.18;;;-8.90;64.26
36514;BME280;74739;46.796;9.824;2024-03-25T01:33:43;83698.05;;;-9.65;68.37
36514;BME280;74739;46.796;9.824;2024-03-25T01:36:17;83688.85;;;-8.53;66.45
36514;BME280;74739;46.796;9.824;2024-03-25T01:38:45;83684.97;;;-6.68;59.84
36514;BME280;74739;46.796;9.824;2024-03-25T01:41:13;83684.96;;;-6.31;57.91
36514;BME280;74739;46.796;9.824;2024-03-25T01:43:43;83690.06;;;-8.53;62.96
36514;BME280;74739;46.796;9.824;2024-03-25T01:46:12;83693.39;;;-8.40;66.79
36514;BME280;74739;46.796;9.824;2024-03-25T01:48:40;83690.23;;;-8.03;62.98
36514;BME280;74739;46.796;9.824;2024-03-25T01:51:07;83688.77;;;-6.77;62.20
36514;BME280;74739;46.796;9.824;2024-03-25T01:53:36;83689.73;;;-9.28;67.14
36514;BME280;74739;46.796;9.824;2024-03-25T01:56:04;83687.93;;;-8.81;67.51
36514;BME280;74739;46.796;9.824;2024-03-25T01:58:32;83685.28;;;-8.00;65.90
36514;BME280;74739;46.796;9.824;2024-03-25T02:01:01;83679.95;;;-6.32;59.81
36514;BME280;74739;46.796;9.824;2024-03-25T02:03:30;83676.69;;;-6.40;57.21
36514;BME280;74739;46.796;9.824;2024-03-25T02:06:01;83678.36;;;-8.84;65.47
36514;BME280;74739;46.796;9.824;2024-03-25T02:08:31;83672.54;;;-8.96;68.77
36514;BME280;74739;46.796;9.824;2024-03-25T02:11:00;83674.03;;;-9.26;69.08
36514;BME280;74739;46.796;9.824;2024-03-25T02:13:28;83674.29;;;-7.55;65.39
36514;BME280;74739;46.796;9.824;2024-03-25T02:15:56;83671.41;;;-6.16;58.42
36514;BME280;74739;46.796;9.824;2024-03-25T02:18:23;83664.36;;;-5.96;57.25
36514;BME280;74739;46.796;9.824;2024-03-25T02:20:51;83657.56;;;-5.47;55.81
36514;BME280;74739;46.796;9.824;2024-03-25T02:23:19;83666.81;;;-6.52;60.26
36514;BME280;74739;46.796;9.824;2024-03-25T02:25:49;83664.63;;;-6.34;59.11
36514;BME280;74739;46.796;9.824;2024-03-25T02:28:18;83671.34;;;-7.12;59.92
36514;BME280;74739;46.796;9.824;2024-03-25T02:30:46;83669.79;;;-7.64;61.07
36514;BME280;74739;46.796;9.824;2024-03-25T02:33:15;83670.13;;;-8.66;64.74
36514;BME280;74739;46.796;9.824;2024-03-25T02:35:43;83669.77;;;-7.40;62.60
36514;BME280;74739;46.796;9.824;2024-03-25T02:38:12;83660.35;;;-5.70;56.96
36514;BME280;74739;46.796;9.824;2024-03-25T02:40:39;83652.31;;;-4.99;54.86
36514;BME280;74739;46.796;9.824;2024-03-25T02:43:06;83647.65;;;-5.17;54.98
36514;BME280;74739;46.796;9.824;2024-03-25T02:45:33;83641.27;;;-4.72;54.85
36514;BME280;74739;46.796;9.824;2024-03-25T02:48:01;83638.01;;;-4.99;55.71
36514;BME280;74739;46.796;9.824;2024-03-25T02:50:28;83642.62;;;-5.09;54.26
36514;BME280;74739;46.796;9.824;2024-03-25T02:52:56;83647.29;;;-5.48;54.72
36514;BME280;74739;46.796;9.824;2024-03-25T02:55:23;83648.28;;;-5.50;54.24
36514;BME280;74739;46.796;9.824;2024-03-25T02:57:50;83647.34;;;-4.96;52.58
36514;BME280;74739;46.796;9.824;2024-03-25T03:00:17;83654.08;;;-6.88;56.07
36514;BME280;74739;46.796;9.824;2024-03-25T03:02:44;83655.90;;;-8.71;65.56
36514;BME280;74739;46.796;9.824;2024-03-25T03:05:11;83657.51;;;-9.00;67.24
36514;BME280;74739;46.796;9.824;2024-03-25T03:07:38;83662.56;;;-9.02;66.55
36514;BME280;74739;46.796;9.824;2024-03-25T03:10:06;83660.18;;;-6.36;58.42
36514;BME280;74739;46.796;9.824;2024-03-25T03:12:33;83658.97;;;-5.49;55.20
36514;BME280;74739;46.796;9.824;2024-03-25T03:15:00;83655.88;;;-5.32;55.26
36514;BME280;74739;46.796;9.824;2024-03-25T03:17:27;83665.05;;;-7.87;60.45
36514;BME280;74739;46.796;9.824;2024-03-25T03:19:54;83658.57;;;-5.85;56.73
36514;BME280;74739;46.796;9.824;2024-03-25T03:22:21;83666.86;;;-7.34;59.24
36514;BME280;74739;46.796;9.824;2024-03-25T03:24:48;83664.76;;;-7.09;58.11
36514;BME280;74739;46.796;9.824;2024-03-25T03:27:15;83651.58;;;-5.33;54.15
36514;BME280;74739;46.796;9.824;2024-03-25T03:29:43;83651.67;;;-4.80;53.05
36514;BME280;74739;46.796;9.824;2024-03-25T03:32:09;83657.82;;;-6.48;56.38
36514;BME280;74739;46.796;9.824;2024-03-25T03:34:36;83660.71;;;-8.69;62.19
36514;BME280;74739;46.796;9.824;2024-03-25T03:37:04;83658.61;;;-8.73;66.34
36514;BME280;74739;46.796;9.824;2024-03-25T03:39:31;83655.33;;;-8.16;65.58
36514;BME280;74739;46.796;9.824;2024-03-25T03:41:59;83657.27;;;-6.20;59.03
36514;BME280;74739;46.796;9.824;2024-03-25T03:44:26;83659.70;;;-7.15;61.46
36514;BME280;74739;46.796;9.824;2024-03-25T03:46:53;83656.04;;;-5.67;56.65
36514;BME280;74739;46.796;9.824;2024-03-25T03:49:20;83658.22;;;-7.81;63.00
36514;BME280;74739;46.796;9.824;2024-03-25T03:51:47;83654.91;;;-8.46;64.07
36514;BME280;74739;46.796;9.824;2024-03-25T03:54:14;83652.04;;;-8.21;65.11
36514;BME280;74739;46.796;9.824;2024-03-25T03:56:41;83656.90;;;-8.69;65.99
36514;BME280;74739;46.796;9.824;2024-03-25T03:59:08;83661.17;;;-8.77;65.00
36514;BME280;74739;46.796;9.824;2024-03-25T04:01:36;83663.05;;;-8.73;65.96
36514;BME280;74739;46.796;9.824;2024-03-25T04:04:03;83660.10;;;-8.34;65.21
36514;BME280;74739;46.796;9.824;2024-03-25T04:06:30;83661.13;;;-5.94;58.17
36514;BME280;74739;46.796;9.824;2024-03-25T04:08:57;83653.88;;;-5.03;54.81
36514;BME280;74739;46.796;9.824;2024-03-25T04:11:24;83656.41;;;-4.59;53.34
36514;BME280;74739;46.796;9.824;2024-03-25T04:13:51;83658.39;;;-5.39;54.41
36514;BME280;74739;46.796;9.824;2024-03-25T04:16:18;83657.95;;;-5.40;55.03
36514;BME280;74739;46.796;9.824;2024-03-25T04:18:47;83654.26;;;-5.63;54.39
36514;BME280;74739;46.796;9.824;2024-03-25T04:21:14;83663.34;;;-7.67;59.47
36514;BME280;74739;46.796;9.824;2024-03-25T04:23:41;83660.72;;;-8.36;61.10
36514;BME280;74739;46.796;9.824;2024-03-25T04:26:08;83659.96;;;-8.53;59.69
36514;BME280;74739;46.796;9.824;2024-03-25T04:28:35;83655.56;;;-8.62;61.43
36514;BME280;74739;46.796;9.824;2024-03-25T04:31:03;83652.36;;;-7.69;57.35
36514;BME280;74739;46.796;9.824;2024-03-25T04:33:29;83651.26;;;-8.01;57.29
36514;BME280;74739;46.796;9.824;2024-03-25T04:35:56;83653.76;;;-8.19;58.14
36514;BME280;74739;46.796;9.824;2024-03-25T04:38:24;83650.93;;;-6.32;54.35
36514;BME280;74739;46.796;9.824;2024-03-25T04:40:51;83647.24;;;-5.41;51.85
36514;BME280;74739;46.796;9.824;2024-03-25T04:43:18;83649.49;;;-6.38;52.74
36514;BME280;74739;46.796;9.824;2024-03-25T04:45:45;83646.37;;;-6.23;52.19
36514;BME280;74739;46.796;9.824;2024-03-25T04:48:12;83642.95;;;-5.93;51.51
36514;BME280;74739;46.796;9.824;2024-03-25T04:50:39;83642.61;;;-5.71;51.06
36514;BME280;74739;46.796;9.824;2024-03-25T04:53:06;83645.07;;;-5.72;50.08
36514;BME280;74739;46.796;9.824;2024-03-25T04:55:33;83649.43;;;-6.48;51.55
36514;BME280;74739;46.796;9.824;2024-03-25T04:58:00;83652.13;;;-8.40;56.39
36514;BME280;74739;46.796;9.824;2024-03-25T05:00:28;83648.21;;;-6.98;52.72
36514;BME280;74739;46.796;9.824;2024-03-25T05:02:54;83652.46;;;-7.58;53.86
36514;BME280;74739;46.796;9.824;2024-03-25T05:05:22;83653.59;;;-6.78;52.53
36514;BME280;74739;46.796;9.824;2024-03-25T05:07:49;83653.60;;;-6.77;53.20
36514;BME280;74739;46.796;9.824;2024-03-25T05:10:16;83656.02;;;-5.77;50.63
36514;BME280;74739;46.796;9.824;2024-03-25T05:12:43;83663.81;;;-8.29;54.07
36514;BME280;74739;46.796;9.824;2024-03-25T05:15:10;83666.43;;;-6.89;53.72
36514;BME280;74739;46.796;9.824;2024-03-25T05:17:37;83672.38;;;-9.04;58.96
36514;BME280;74739;46.796;9.824;2024-03-25T05:20:05;83678.80;;;-9.78;63.32
36514;BME280;74739;46.796;9.824;2024-03-25T05:22:32;83674.31;;;-7.27;55.81
36514;BME280;74739;46.796;9.824;2024-03-25T05:24:59;83671.71;;;-6.56;54.03
36514;BME280;74739;46.796;9.824;2024-03-25T05:27:26;83673.59;;;-6.35;52.89
36514;BME280;74739;46.796;9.824;2024-03-25T05:29:54;83675.03;;;-6.97;52.85
36514;BME280;74739;46.796;9.824;2024-03-25T05:32:21;83672.48;;;-6.91;52.50
36514;BME280;74739;46.796;9.824;2024-03-25T05:34:48;83673.10;;;-6.20;51.27
36514;BME280;74739;46.796;9.824;2024-03-25T05:37:15;83673.86;;;-6.39;51.07
36514;BME280;74739;46.796;9.824;2024-03-25T05:39:43;83676.12;;;-6.14;50.17
36514;BME280;74739;46.796;9.824;2024-03-25T05:42:10;83674.95;;;-6.03;49.60
36514;BME280;74739;46.796;9.824;2024-03-25T05:44:37;83673.46;;;-8.84;54.75
36514;BME280;74739;46.796;9.824;2024-03-25T05:47:04;83677.15;;;-10.20;60.21
36514;BME280;74739;46.796;9.824;2024-03-25T05:49:31;83677.24;;;-10.32;60.72
36514;BME280;74739;46.796;9.824;2024-03-25T05:51:59;83671.74;;;-8.42;56.81
36514;BME280;74739;46.796;9.824;2024-03-25T05:54:26;83670.64;;;-9.42;58.73
36514;BME280;74739;46.796;9.824;2024-03-25T05:56:53;83665.44;;;-6.89;52.74
36514;BME280;74739;46.796;9.824;2024-03-25T05:59:20;83661.47;;;-6.93;50.88
36514;BME280;74739;46.796;9.824;2024-03-25T06:01:55;83660.84;;;-6.13;50.00
36514;BME280;74739;46.796;9.824;2024-03-25T06:04:22;83661.76;;;-6.06;50.12
36514;BME280;74739;46.796;9.824;2024-03-25T06:06:49;83667.36;;;-6.12;50.71
36514;BME280;74739;46.796;9.824;2024-03-25T06:09:16;83667.70;;;-6.59;51.58
36514;BME280;74739;46.796;9.824;2024-03-25T06:11:44;83665.81;;;-6.41;51.11
36514;BME280;74739;46.796;9.824;2024-03-25T06:14:12;83666.39;;;-6.36;51.37
36514;BME280;74739;46.796;9.824;2024-03-25T06:16:39;83673.36;;;-8.88;57.16
36514;BME280;74739;46.796;9.824;2024-03-25T06:19:06;83665.18;;;-9.07;61.43
36514;BME280;74739;46.796;9.824;2024-03-25T06:21:33;83663.24;;;-10.06;62.16
36514;BME280;74739;46.796;9.824;2024-03-25T06:24:00;83663.03;;;-10.85;65.07
36514;BME280;74739;46.796;9.824;2024-03-25T06:26:28;83664.76;;;-10.67;66.14
36514;BME280;74739;46.796;9.824;2024-03-25T06:28:55;83669.89;;;-11.40;67.89
36514;BME280;74739;46.796;9.824;2024-03-25T06:31:22;83665.38;;;-11.39;68.23
36514;BME280;74739;46.796;9.824;2024-03-25T06:33:50;83655.21;;;-10.48;66.66
36514;BME280;74739;46.796;9.824;2024-03-25T06:36:17;83655.82;;;-9.79;63.16
36514;BME280;74739;46.796;9.824;2024-03-25T06:38:45;83655.76;;;-7.84;57.45
36514;BME280;74739;46.796;9.824;2024-03-25T06:41:13;83656.88;;;-7.64;56.72
36514;BME280;74739;46.796;9.824;2024-03-25T06:43:42;83653.09;;;-8.00;56.02
36514;BME280;74739;46.796;9.824;2024-03-25T06:46:12;83658.53;;;-9.58;61.41
36514;BME280;74739;46.796;9.824;2024-03-25T06:48:39;83660.90;;;-10.33;63.47
36514;BME280;74739;46.796;9.824;2024-03-25T06:51:06;83662.81;;;-11.30;66.06
36514;BME280;74739;46.796;9.824;2024-03-25T06:53:35;83669.30;;;-11.68;64.87
36514;BME280;74739;46.796;9.824;2024-03-25T06:56:03;83663.20;;;-11.06;65.11
36514;BME280;74739;46.796;9.824;2024-03-25T06:58:31;83657.93;;;-9.19;61.43
36514;BME280;74739;46.796;9.824;2024-03-25T07:01:06;83657.15;;;-9.75;61.52
36514;BME280;74739;46.796;9.824;2024-03-25T07:03:39;83649.15;;;-9.18;61.38
36514;BME280;74739;46.796;9.824;2024-03-25T07:06:06;83646.16;;;-9.50;59.79
36514;BME280;74739;46.796;9.824;2024-03-25T07:08:33;83643.45;;;-10.68;63.14
36514;BME280;74739;46.796;9.824;2024-03-25T07:11:00;83641.48;;;-9.75;62.23
36514;BME280;74739;46.796;9.824;2024-03-25T07:13:29;83639.74;;;-8.18;55.83
36514;BME280;74739;46.796;9.824;2024-03-25T07:15:57;83641.34;;;-8.83;60.03
36514;BME280;74739;46.796;9.824;2024-03-25T07:18:24;83646.54;;;-10.04;62.23
36514;BME280;74739;46.796;9.824;2024-03-25T07:20:50;83649.19;;;-10.89;64.12
36514;BME280;74739;46.796;9.824;2024-03-25T07:23:18;83661.09;;;-11.15;66.57
36514;BME280;74739;46.796;9.824;2024-03-25T07:25:54;83652.18;;;-10.37;64.07
36514;BME280;74739;46.796;9.824;2024-03-25T07:28:21;83646.99;;;-9.60;64.50
36514;BME280;74739;46.796;9.824;2024-03-25T07:30:50;83637.66;;;-9.93;64.24
36514;BME280;74739;46.796;9.824;2024-03-25T07:33:17;83632.11;;;-9.24;63.05
36514;BME280;74739;46.796;9.824;2024-03-25T07:35:46;83636.78;;;-9.86;64.01
36514;BME280;74739;46.796;9.824;2024-03-25T07:38:13;83635.77;;;-9.86;64.34
36514;BME280;74739;46.796;9.824;2024-03-25T07:40:41;83635.18;;;-10.21;65.62
36514;BME280;74739;46.796;9.824;2024-03-25T07:43:09;83635.95;;;-9.98;66.34
36514;BME280;74739;46.796;9.824;2024-03-25T07:45:36;83635.48;;;-9.82;66.65
36514;BME280;74739;46.796;9.824;2024-03-25T07:48:04;83633.45;;;-9.48;65.28
36514;BME280;74739;46.796;9.824;2024-03-25T07:50:31;83627.59;;;-8.74;63.79
36514;BME280;74739;46.796;9.824;2024-03-25T07:52:59;83626.00;;;-9.16;62.64
36514;BME280;74739;46.796;9.824;2024-03-25T07:55:26;83623.40;;;-8.69;64.10
36514;BME280;74739;46.796;9.824;2024-03-25T07:57:53;83618.77;;;-8.54;62.32
36514;BME280;74739;46.796;9.824;2024-03-25T08:00:20;83618.76;;;-8.97;62.56
36514;BME280;74739;46.796;9.824;2024-03-25T08:02:47;83615.63;;;-8.38;62.76
36514;BME280;74739;46.796;9.824;2024-03-25T08:05:14;83610.28;;;-8.55;60.55
36514;BME280;74739;46.796;9.824;2024-03-25T08:07:41;83611.98;;;-7.56;59.78
36514;BME280;74739;46.796;9.824;2024-03-25T08:10:09;83612.93;;;-7.80;57.91
36514;BME280;74739;46.796;9.824;2024-03-25T08:12:36;83609.83;;;-7.59;58.66
36514;BME280;74739;46.796;9.824;2024-03-25T08:15:10;83612.27;;;-7.99;58.55
36514;BME280;74739;46.796;9.824;2024-03-25T08:17:37;83619.00;;;-8.09;56.13
36514;BME280;74739;46.796;9.824;2024-03-25T08:20:05;83613.96;;;-7.01;58.23
36514;BME280;74739;46.796;9.824;2024-03-25T08:22:34;83612.51;;;-7.10;56.97
36514;BME280;74739;46.796;9.824;2024-03-25T08:25:01;83615.31;;;-6.97;54.59
36514;BME280;74739;46.796;9.824;2024-03-25T08:27:28;83615.77;;;-7.65;54.89
36514;BME280;74739;46.796;9.824;2024-03-25T08:29:55;83606.33;;;-6.62;52.59
36514;BME280;74739;46.796;9.824;2024-03-25T08:32:22;83597.63;;;-5.91;50.19
36514;BME280;74739;46.796;9.824;2024-03-25T08:34:49;83600.92;;;-6.68;55.36
36514;BME280;74739;46.796;9.824;2024-03-25T08:37:16;83591.70;;;-5.90;52.33
36514;BME280;74739;46.796;9.824;2024-03-25T08:39:44;83591.83;;;-6.75;51.44
36514;BME280;74739;46.796;9.824;2024-03-25T08:42:11;83576.92;;;-5.10;46.98
36514;BME280;74739;46.796;9.824;2024-03-25T08:44:38;83575.41;;;-4.41;47.13
36514;BME280;74739;46.796;9.824;2024-03-25T08:47:05;83571.15;;;-2.76;41.49
36514;BME280;74739;46.796;9.824;2024-03-25T08:49:32;83573.98;;;-3.41;44.52
36514;BME280;74739;46.796;9.824;2024-03-25T08:51:58;83573.33;;;-3.48;45.62
36514;BME280;74739;46.796;9.824;2024-03-25T08:54:26;83574.82;;;-5.64;50.04
36514;BME280;74739;46.796;9.824;2024-03-25T08:56:53;83567.66;;;-3.86;44.83
36514;BME280;74739;46.796;9.824;2024-03-25T08:59:20;83567.89;;;-5.36;47.00
36514;BME280;74739;46.796;9.824;2024-03-25T09:01:56;83567.94;;;-5.53;45.84
36514;BME280;74739;46.796;9.824;2024-03-25T09:04:23;83564.26;;;-4.80;46.89
36514;BME280;74739;46.796;9.824;2024-03-25T09:06:50;83563.87;;;-5.52;49.05
36514;BME280;74739;46.796;9.824;2024-03-25T09:09:17;83557.05;;;-3.77;46.24
36514;BME280;74739;46.796;9.824;2024-03-25T09:11:44;83555.39;;;-4.59;46.32
36514;BME280;74739;46.796;9.824;2024-03-25T09:14:11;83548.39;;;-5.28;45.21
36514;BME280;74739;46.796;9.824;2024-03-25T09:16:38;83542.61;;;-3.81;41.92
36514;BME280;74739;46.796;9.824;2024-03-25T09:19:05;83545.39;;;-4.59;42.64
36514;BME280;74739;46.796;9.824;2024-03-25T09:21:33;83542.50;;;-5.10;41.38
36514;BME280;74739;46.796;9.824;2024-03-25T09:24:03;83543.47;;;-4.37;41.56
36514;BME280;74739;46.796;9.824;2024-03-25T09:26:30;83545.00;;;-3.55;42.57
36514;BME280;74739;46.796;9.824;2024-03-25T09:28:59;83543.69;;;-4.11;38.93
36514;BME280;74739;46.796;9.824;2024-03-25T09:31:26;83534.79;;;-1.06;36.02
36514;BME280;74739;46.796;9.824;2024-03-25T09:33:52;83538.58;;;-3.84;39.28
36514;BME280;74739;46.796;9.824;2024-03-25T09:36:27;83537.72;;;-4.15;42.56
36514;BME280;74739;46.796;9.824;2024-03-25T09:38:55;83531.55;;;-4.25;42.89
36514;BME280;74739;46.796;9.824;2024-03-25T09:41:23;83530.09;;;-2.85;38.47
36514;BME280;74739;46.796;9.824;2024-03-25T09:43:55;83526.54;;;-4.58;41.56
36514;BME280;74739;46.796;9.824;2024-03-25T09:46:23;83522.99;;;-3.59;44.85
36514;BME280;74739;46.796;9.824;2024-03-25T09:48:53;83521.40;;;-4.48;45.07
36514;BME280;74739;46.796;9.824;2024-03-25T09:51:20;83509.80;;;-4.39;41.90
36514;BME280;74739;46.796;9.824;2024-03-25T09:53:48;83508.72;;;-4.58;45.17
36514;BME280;74739;46.796;9.824;2024-03-25T09:56:14;83504.98;;;-4.46;43.55
36514;BME280;74739;46.796;9.824;2024-03-25T09:58:42;83508.08;;;-4.31;42.29
36514;BME280;74739;46.796;9.824;2024-03-25T10:01:10;83503.54;;;-3.52;42.47
36514;BME280;74739;46.796;9.824;2024-03-25T10:03:38;83498.29;;;-4.08;43.47
36514;BME280;74739;46.796;9.824;2024-03-25T10:06:05;83496.53;;;-3.83;41.59
36514;BME280;74739;46.796;9.824;2024-03-25T10:08:32;83491.16;;;-4.39;40.36
36514;BME280;74739;46.796;9.824;2024-03-25T10:11:01;83487.03;;;-4.44;41.77
36514;BME280;74739;46.796;9.824;2024-03-25T10:13:28;83484.04;;;-3.26;42.30
36514;BME280;74739;46.796;9.824;2024-03-25T10:15:55;83484.00;;;-3.58;39.45
36514;BME280;74739;46.796;9.824;2024-03-25T10:18:28;83472.27;;;-1.92;39.50
36514;BME280;74739;46.796;9.824;2024-03-25T10:20:55;83475.44;;;-3.13;41.63
36514;BME280;74739;46.796;9.824;2024-03-25T10:23:23;83465.84;;;-1.61;38.85
36514;BME280;74739;46.796;9.824;2024-03-25T10:25:52;83465.25;;;-0.85;38.90
36514;BME280;74739;46.796;9.824;2024-03-25T10:28:20;83465.98;;;-0.92;37.18
36514;BME280;74739;46.796;9.824;2024-03-25T10:30:47;83473.11;;;-1.10;36.92
36514;BME280;74739;46.796;9.824;2024-03-25T10:33:14;83476.02;;;-2.09;37.24
36514;BME280;74739;46.796;9.824;2024-03-25T10:35:45;83478.06;;;-3.58;39.74
36514;BME280;74739;46.796;9.824;2024-03-25T10:38:17;83477.31;;;-3.17;40.05
36514;BME280;74739;46.796;9.824;2024-03-25T10:40:46;83471.55;;;-2.23;39.55
36514;BME280;74739;46.796;9.824;2024-03-25T10:43:17;83465.03;;;-2.24;38.21
36514;BME280;74739;46.796;9.824;2024-03-25T10:45:47;83461.76;;;-2.56;41.05
36514;BME280;74739;46.796;9.824;2024-03-25T10:48:17;83452.23;;;-1.82;37.50
36514;BME280;74739;46.796;9.824;2024-03-25T10:50:47;83454.34;;;-2.58;39.36
36514;BME280;74739;46.796;9.824;2024-03-25T10:53:15;83442.50;;;-1.70;36.18
36514;BME280;74739;46.796;9.824;2024-03-25T10:55:45;83436.95;;;-0.49;33.78
36514;BME280;74739;46.796;9.824;2024-03-25T10:58:15;83433.35;;;0.05;35.66
36514;BME280;74739;46.796;9.824;2024-03-25T11:00:42;83436.31;;;-1.82;38.84
36514;BME280;74739;46.796;9.824;2024-03-25T11:03:10;83430.45;;;-2.13;40.42
36514;BME280;74739;46.796;9.824;2024-03-25T11:05:38;83425.41;;;-1.52;38.33
36514;BME280;74739;46.796;9.824;2024-03-25T11:08:14;83428.79;;;-2.67;41.59
36514;BME280;74739;46.796;9.824;2024-03-25T11:10:42;83424.45;;;-2.99;39.58
36514;BME280;74739;46.796;9.824;2024-03-25T11:13:11;83415.42;;;-1.91;41.29
36514;BME280;74739;46.796;9.824;2024-03-25T11:15:40;83408.82;;;-2.54;42.55
36514;BME280;74739;46.796;9.824;2024-03-25T11:18:11;83407.99;;;-1.46;38.74
36514;BME280;74739;46.796;9.824;2024-03-25T11:20:39;83401.60;;;-0.43;37.07
36514;BME280;74739;46.796;9.824;2024-03-25T11:23:09;83402.20;;;-2.27;38.19
36514;BME280;74739;46.796;9.824;2024-03-25T11:25:37;83401.35;;;-1.57;38.73
36514;BME280;74739;46.796;9.824;2024-03-25T11:28:04;83399.58;;;-1.34;37.31
36514;BME280;74739;46.796;9.824;2024-03-25T11:30:32;83398.90;;;-1.66;36.18
36514;BME280;74739;46.796;9.824;2024-03-25T11:33:02;83397.25;;;-1.82;35.47
36514;BME280;74739;46.796;9.824;2024-03-25T11:35:29;83392.70;;;-0.15;34.44
36514;BME280;74739;46.796;9.824;2024-03-25T11:37:57;83389.00;;;0.74;34.57
36514;BME280;74739;46.796;9.824;2024-03-25T11:40:24;83385.85;;;-0.51;31.86
36514;BME280;74739;46.796;9.824;2024-03-25T11:42:52;83380.79;;;0.30;34.70
36514;BME280;74739;46.796;9.824;2024-03-25T11:45:20;83380.48;;;1.58;32.60
36514;BME280;74739;46.796;9.824;2024-03-25T11:47:48;83379.51;;;1.05;32.79
36514;BME280;74739;46.796;9.824;2024-03-25T11:50:17;83375.75;;;0.14;32.35
36514;BME280;74739;46.796;9.824;2024-03-25T11:52:44;83378.22;;;-1.69;32.85
36514;BME280;74739;46.796;9.824;2024-03-25T11:55:16;83366.81;;;0.10;31.46
36514;BME280;74739;46.796;9.824;2024-03-25T11:57:44;83364.98;;;-0.01;30.47
36514;BME280;74739;46.796;9.824;2024-03-25T12:00:12;83362.98;;;-0.06;31.09
36514;BME280;74739;46.796;9.824;2024-03-25T12:02:43;83364.35;;;0.86;32.67
36514;BME280;74739;46.796;9.824;2024-03-25T12:05:11;83363.76;;;0.27;32.41
36514;BME280;74739;46.796;9.824;2024-03-25T12:07:38;83358.42;;;0.03;32.50
36514;BME280;74739;46.796;9.824;2024-03-25T12:10:06;83357.59;;;0.09;35.08
36514;BME280;74739;46.796;9.824;2024-03-25T12:12:34;83349.79;;;0.68;29.92
36514;BME280;74739;46.796;9.824;2024-03-25T12:15:01;83346.97;;;0.93;31.99
36514;BME280;74739;46.796;9.824;2024-03-25T12:17:28;83344.20;;;-0.06;36.09
36514;BME280;74739;46.796;9.824;2024-03-25T12:20:02;83341.64;;;-0.80;36.10
36514;BME280;74739;46.796;9.824;2024-03-25T12:22:29;83343.89;;;0.43;36.12
36514;BME280;74739;46.796;9.824;2024-03-25T12:24:58;83342.77;;;0.37;31.98
36514;BME280;74739;46.796;9.824;2024-03-25T12:27:25;83343.03;;;1.14;32.24
36514;BME280;74739;46.796;9.824;2024-03-25T12:30:01;83344.26;;;1.02;31.86
36514;BME280;74739;46.796;9.824;2024-03-25T12:32:46;83335.04;;;-0.13;33.17
36514;BME280;74739;46.796;9.824;2024-03-25T12:35:15;83337.33;;;0.63;33.50
36514;BME280;74739;46.796;9.824;2024-03-25T12:37:44;83331.71;;;-0.22;33.75
36514;BME280;74739;46.796;9.824;2024-03-25T12:40:25;83336.14;;;0.99;33.83
36514;BME280;74739;46.796;9.824;2024-03-25T12:42:52;83334.64;;;1.06;32.84
36514;BME280;74739;46.796;9.824;2024-03-25T12:45:20;83329.73;;;1.01;32.22
36514;BME280;74739;46.796;9.824;2024-03-25T12:47:47;83327.88;;;0.25;32.98
36514;BME280;74739;46.796;9.824;2024-03-25T12:50:14;83322.41;;;-0.22;34.68
36514;BME280;74739;46.796;9.824;2024-03-25T12:52:41;83316.01;;;1.86;31.02
36514;BME280;74739;46.796;9.824;2024-03-25T12:55:09;83311.04;;;0.36;32.43
36514;BME280;74739;46.796;9.824;2024-03-25T12:57:35;83304.51;;;2.58;31.43
36514;BME280;74739;46.796;9.824;2024-03-25T13:00:03;83301.75;;;2.34;30.79
36514;BME280;74739;46.796;9.824;2024-03-25T13:02:30;83305.91;;;1.12;31.13